ROMMA est une association bénévole à but non lucratif. Votre soutien est indispensable : ADHERER à ROMMA ou FAIRE un DON

Le Versoud - (38, Isère)

Vallée du Grésivaudan (220 m)   Longitude: 05° 51' 44" E   Latitude: 45° 13' 06" N Station partenaire n°6
 

Détail journalier du     <<     >>

Température Humidité Pression Vent Dir Rafale Dir. rafale Ensol.
Heure (°C) (%) (hPa) (km/h) (km/h) (min)
01:00 11.096101900---0
02:00 11.596101903NE0
03:00 11.496101900---0
04:00 11.796102000---0
05:00 11.896102000---0
06:00 11.596102002NE0
07:00 11.696102100---0
08:00 11.696102100---0
09:00 11.795102200---0
10:00 11.893102303NE0
11:00 12.391102302NE0
12:00 13.885102308NE30
13:00 16.176102208NNE55
14:00 16.77310221E11SE60
15:00 17.2701021015ONO45
16:00 17.7681021010SO15
17:00 17.370102106SO5
18:00 16.975102100---20
19:00 15.682102100---10
20:00 14.786102200---0
21:00 14.287102300---0
22:00 12.890102300---0
23:00 11.792102300---0
minuit 10.993102300---0

Graphique du 25-10-2019

 

Serveur OMMA